sensor_id;sensor_type;location;lat;lon;timestamp;pressure;altitude;pressure_sealevel;temperature;humidity
42601;BME280;28229;48.856;9.088;2022-07-15T00:02:09;98279.44;;;18.21;50.83
42601;BME280;28229;48.856;9.088;2022-07-15T00:04:35;98287.91;;;18.08;50.93
42601;BME280;28229;48.856;9.088;2022-07-15T00:07:02;98277.75;;;18.05;51.40
42601;BME280;28229;48.856;9.088;2022-07-15T00:09:29;98277.75;;;18.05;51.32
42601;BME280;28229;48.856;9.088;2022-07-15T00:12:13;98278.25;;;18.02;51.12
42601;BME280;28229;48.856;9.088;2022-07-15T00:14:39;98281.97;;;17.96;51.14
42601;BME280;28229;48.856;9.088;2022-07-15T00:17:07;98277.69;;;17.95;50.88
42601;BME280;28229;48.856;9.088;2022-07-15T00:19:34;98272.91;;;17.92;51.20
42601;BME280;28229;48.856;9.088;2022-07-15T00:22:00;98274.38;;;17.82;50.98
42601;BME280;28229;48.856;9.088;2022-07-15T00:24:28;98272.41;;;17.67;51.39
42601;BME280;28229;48.856;9.088;2022-07-15T00:26:53;98273.38;;;17.51;52.34
42601;BME280;28229;48.856;9.088;2022-07-15T00:29:19;98273.28;;;17.41;52.53
42601;BME280;28229;48.856;9.088;2022-07-15T00:31:45;98278.25;;;17.32;52.81
42601;BME280;28229;48.856;9.088;2022-07-15T00:34:11;98281.94;;;17.26;52.84
42601;BME280;28229;48.856;9.088;2022-07-15T00:36:37;98272.34;;;17.25;52.97
42601;BME280;28229;48.856;9.088;2022-07-15T00:39:03;98266.31;;;17.07;53.93
42601;BME280;28229;48.856;9.088;2022-07-15T00:41:39;98262.75;;;16.97;54.05
42601;BME280;28229;48.856;9.088;2022-07-15T00:44:06;98269.44;;;16.99;54.11
42601;BME280;28229;48.856;9.088;2022-07-15T00:46:32;98276.25;;;16.90;54.23
42601;BME280;28229;48.856;9.088;2022-07-15T00:48:58;98269.88;;;16.91;54.19
42601;BME280;28229;48.856;9.088;2022-07-15T00:51:25;98264.41;;;16.81;54.37
42601;BME280;28229;48.856;9.088;2022-07-15T00:53:52;98266.28;;;16.80;54.26
42601;BME280;28229;48.856;9.088;2022-07-15T00:56:21;98266.47;;;16.73;54.48
42601;BME280;28229;48.856;9.088;2022-07-15T00:58:49;98266.28;;;16.80;54.48
42601;BME280;28229;48.856;9.088;2022-07-15T01:01:19;98264.94;;;16.78;54.32
42601;BME280;28229;48.856;9.088;2022-07-15T01:03:50;98260.44;;;16.56;55.12
42601;BME280;28229;48.856;9.088;2022-07-15T01:06:16;98271.38;;;16.60;55.37
42601;BME280;28229;48.856;9.088;2022-07-15T01:08:43;98270.25;;;16.78;54.58
42601;BME280;28229;48.856;9.088;2022-07-15T01:11:08;98267.34;;;16.79;54.28
42601;BME280;28229;48.856;9.088;2022-07-15T01:13:35;98272.53;;;16.69;54.59
42601;BME280;28229;48.856;9.088;2022-07-15T01:16:02;98280.19;;;16.65;54.88
42601;BME280;28229;48.856;9.088;2022-07-15T01:18:29;98274.53;;;16.56;55.12
42601;BME280;28229;48.856;9.088;2022-07-15T01:20:56;98272.34;;;16.53;55.56
42601;BME280;28229;48.856;9.088;2022-07-15T01:23:22;98271.63;;;16.58;55.64
42601;BME280;28229;48.856;9.088;2022-07-15T01:25:59;98276.81;;;16.48;55.97
42601;BME280;28229;48.856;9.088;2022-07-15T01:28:26;98277.28;;;16.45;55.48
42601;BME280;28229;48.856;9.088;2022-07-15T01:30:53;98274.56;;;16.40;55.55
42601;BME280;28229;48.856;9.088;2022-07-15T01:33:20;98273.69;;;16.34;56.00
42601;BME280;28229;48.856;9.088;2022-07-15T01:35:46;98283.47;;;16.28;56.08
42601;BME280;28229;48.856;9.088;2022-07-15T01:38:12;98278.50;;;16.15;56.60
42601;BME280;28229;48.856;9.088;2022-07-15T01:40:38;98286.31;;;16.05;56.92
42601;BME280;28229;48.856;9.088;2022-07-15T01:43:05;98280.94;;;15.99;56.83
42601;BME280;28229;48.856;9.088;2022-07-15T01:45:31;98276.59;;;15.93;57.26
42601;BME280;28229;48.856;9.088;2022-07-15T01:47:57;98279.19;;;15.88;57.09
42601;BME280;28229;48.856;9.088;2022-07-15T01:50:41;98276.16;;;15.79;57.36
42601;BME280;28229;48.856;9.088;2022-07-15T01:53:17;98280.41;;;15.80;57.38
42601;BME280;28229;48.856;9.088;2022-07-15T01:55:46;98272.56;;;16.08;55.98
42601;BME280;28229;48.856;9.088;2022-07-15T01:58:13;98277.09;;;15.90;56.28
42601;BME280;28229;48.856;9.088;2022-07-15T02:00:41;98279.03;;;15.78;56.73
42601;BME280;28229;48.856;9.088;2022-07-15T02:03:07;98278.84;;;15.68;57.45
42601;BME280;28229;48.856;9.088;2022-07-15T02:05:34;98276.13;;;15.63;58.05
42601;BME280;28229;48.856;9.088;2022-07-15T02:08:01;98279.41;;;15.53;58.34
42601;BME280;28229;48.856;9.088;2022-07-15T02:10:27;98271.28;;;15.42;58.94
42601;BME280;28229;48.856;9.088;2022-07-15T02:13:09;98276.28;;;15.39;59.00
42601;BME280;28229;48.856;9.088;2022-07-15T02:15:36;98274.66;;;15.38;59.31
42601;BME280;28229;48.856;9.088;2022-07-15T02:18:03;98274.97;;;15.25;60.25
42601;BME280;28229;48.856;9.088;2022-07-15T02:20:30;98273.06;;;15.37;59.70
42601;BME280;28229;48.856;9.088;2022-07-15T02:22:56;98270.88;;;15.34;59.47
42601;BME280;28229;48.856;9.088;2022-07-15T02:25:24;98265.41;;;15.23;59.79
42601;BME280;28229;48.856;9.088;2022-07-15T02:27:59;98271.44;;;15.19;60.71
42601;BME280;28229;48.856;9.088;2022-07-15T02:30:28;98278.47;;;15.13;60.55
42601;BME280;28229;48.856;9.088;2022-07-15T02:32:54;98272.59;;;15.11;60.75
42601;BME280;28229;48.856;9.088;2022-07-15T02:35:22;98266.66;;;15.04;61.10
42601;BME280;28229;48.856;9.088;2022-07-15T02:37:48;98277.81;;;15.06;61.07
42601;BME280;28229;48.856;9.088;2022-07-15T02:40:15;98272.44;;;15.01;61.30
42601;BME280;28229;48.856;9.088;2022-07-15T02:42:47;98276.13;;;15.00;61.15
42601;BME280;28229;48.856;9.088;2022-07-15T02:45:14;98272.03;;;14.92;61.97
42601;BME280;28229;48.856;9.088;2022-07-15T02:47:40;98264.78;;;14.88;62.14
42601;BME280;28229;48.856;9.088;2022-07-15T02:50:08;98271.50;;;14.78;62.60
42601;BME280;28229;48.856;9.088;2022-07-15T02:52:35;98277.72;;;14.72;62.91
42601;BME280;28229;48.856;9.088;2022-07-15T02:55:02;98281.53;;;14.76;62.49
42601;BME280;28229;48.856;9.088;2022-07-15T02:57:28;98286.16;;;14.69;62.68
42601;BME280;28229;48.856;9.088;2022-07-15T02:59:54;98282.69;;;14.69;62.51
42601;BME280;28229;48.856;9.088;2022-07-15T03:02:20;98284.53;;;14.68;62.54
42601;BME280;28229;48.856;9.088;2022-07-15T03:04:46;98286.03;;;14.64;62.89
42601;BME280;28229;48.856;9.088;2022-07-15T03:07:14;98293.66;;;14.60;63.20
42601;BME280;28229;48.856;9.088;2022-07-15T03:09:40;98286.88;;;14.41;64.23
42601;BME280;28229;48.856;9.088;2022-07-15T03:12:05;98297.25;;;14.31;64.63
42601;BME280;28229;48.856;9.088;2022-07-15T03:14:31;98294.94;;;14.22;64.76
42601;BME280;28229;48.856;9.088;2022-07-15T03:16:57;98286.66;;;14.31;64.57
42601;BME280;28229;48.856;9.088;2022-07-15T03:19:25;98291.03;;;14.25;64.61
42601;BME280;28229;48.856;9.088;2022-07-15T03:21:51;98292.88;;;14.24;64.49
42601;BME280;28229;48.856;9.088;2022-07-15T03:24:20;98287.72;;;14.18;64.43
42601;BME280;28229;48.856;9.088;2022-07-15T03:26:46;98291.38;;;14.17;64.78
42601;BME280;28229;48.856;9.088;2022-07-15T03:29:14;98289.41;;;14.36;64.27
42601;BME280;28229;48.856;9.088;2022-07-15T03:31:45;98293.78;;;14.18;65.14
42601;BME280;28229;48.856;9.088;2022-07-15T03:34:14;98297.25;;;14.31;64.88
42601;BME280;28229;48.856;9.088;2022-07-15T03:36:40;98301.16;;;14.16;65.45
42601;BME280;28229;48.856;9.088;2022-07-15T03:39:07;98302.06;;;14.22;65.14
42601;BME280;28229;48.856;9.088;2022-07-15T03:41:34;98296.81;;;14.10;65.60
42601;BME280;28229;48.856;9.088;2022-07-15T03:44:01;98297.59;;;14.11;65.72
42601;BME280;28229;48.856;9.088;2022-07-15T03:46:28;98297.25;;;14.07;65.99
42601;BME280;28229;48.856;9.088;2022-07-15T03:48:58;98301.50;;;14.20;65.54
42601;BME280;28229;48.856;9.088;2022-07-15T03:51:24;98295.53;;;14.13;65.54
42601;BME280;28229;48.856;9.088;2022-07-15T03:54:01;98294.72;;;14.12;65.49
42601;BME280;28229;48.856;9.088;2022-07-15T03:56:28;98300.47;;;14.21;65.23
42601;BME280;28229;48.856;9.088;2022-07-15T03:58:54;98300.13;;;14.05;66.21
42601;BME280;28229;48.856;9.088;2022-07-15T04:01:21;98300.38;;;13.92;67.05
42601;BME280;28229;48.856;9.088;2022-07-15T04:03:48;98300.34;;;13.80;67.67
42601;BME280;28229;48.856;9.088;2022-07-15T04:06:15;98300.72;;;13.96;66.97
42601;BME280;28229;48.856;9.088;2022-07-15T04:08:41;98313.00;;;13.90;66.95
42601;BME280;28229;48.856;9.088;2022-07-15T04:11:09;98310.03;;;13.98;66.99
42601;BME280;28229;48.856;9.088;2022-07-15T04:13:36;98307.63;;;14.08;66.60
42601;BME280;28229;48.856;9.088;2022-07-15T04:16:02;98317.84;;;13.93;67.38
42601;BME280;28229;48.856;9.088;2022-07-15T04:18:28;98306.47;;;13.93;67.45
42601;BME280;28229;48.856;9.088;2022-07-15T04:20:54;98314.63;;;13.91;67.76
42601;BME280;28229;48.856;9.088;2022-07-15T04:23:21;98314.38;;;14.04;67.38
42601;BME280;28229;48.856;9.088;2022-07-15T04:25:47;98306.91;;;14.13;66.78
42601;BME280;28229;48.856;9.088;2022-07-15T04:28:15;98311.28;;;14.07;66.85
42601;BME280;28229;48.856;9.088;2022-07-15T04:30:41;98319.09;;;14.02;66.88
42601;BME280;28229;48.856;9.088;2022-07-15T04:33:08;98317.16;;;14.09;66.55
42601;BME280;28229;48.856;9.088;2022-07-15T04:35:38;98312.34;;;14.06;66.43
42601;BME280;28229;48.856;9.088;2022-07-15T04:38:06;98317.16;;;14.09;66.46
42601;BME280;28229;48.856;9.088;2022-07-15T04:40:33;98317.50;;;14.25;65.99
42601;BME280;28229;48.856;9.088;2022-07-15T04:43:02;98308.63;;;14.31;66.03
42601;BME280;28229;48.856;9.088;2022-07-15T04:45:29;98309.63;;;14.42;65.48
42601;BME280;28229;48.856;9.088;2022-07-15T04:47:55;98315.41;;;14.39;65.79
42601;BME280;28229;48.856;9.088;2022-07-15T04:50:34;98311.59;;;14.46;65.98
42601;BME280;28229;48.856;9.088;2022-07-15T04:53:12;98308.72;;;14.48;66.04
42601;BME280;28229;48.856;9.088;2022-07-15T04:55:38;98307.56;;;14.56;65.63
42601;BME280;28229;48.856;9.088;2022-07-15T04:58:05;98305.59;;;14.63;65.31
42601;BME280;28229;48.856;9.088;2022-07-15T05:00:32;98310.44;;;14.66;65.20
42601;BME280;28229;48.856;9.088;2022-07-15T05:03:00;98307.19;;;14.76;66.43
42601;BME280;28229;48.856;9.088;2022-07-15T05:05:31;98315.19;;;14.93;68.38
42601;BME280;28229;48.856;9.088;2022-07-15T05:07:58;98312.03;;;15.08;67.81
42601;BME280;28229;48.856;9.088;2022-07-15T05:10:26;98311.97;;;15.19;66.84
42601;BME280;28229;48.856;9.088;2022-07-15T05:12:59;98321.25;;;15.34;66.04
42601;BME280;28229;48.856;9.088;2022-07-15T05:15:26;98319.34;;;15.46;64.89
42601;BME280;28229;48.856;9.088;2022-07-15T05:17:52;98319.44;;;15.51;64.80
42601;BME280;28229;48.856;9.088;2022-07-15T05:20:20;98312.91;;;15.59;64.88
42601;BME280;28229;48.856;9.088;2022-07-15T05:22:49;98318.63;;;15.68;65.51
42601;BME280;28229;48.856;9.088;2022-07-15T05:25:18;98315.19;;;15.84;64.80
42601;BME280;28229;48.856;9.088;2022-07-15T05:27:44;98320.19;;;15.97;64.02
42601;BME280;28229;48.856;9.088;2022-07-15T05:30:10;98322.66;;;16.21;63.56
42601;BME280;28229;48.856;9.088;2022-07-15T05:32:39;98317.28;;;16.38;63.06
42601;BME280;28229;48.856;9.088;2022-07-15T05:35:15;98326.47;;;16.47;62.20
42601;BME280;28229;48.856;9.088;2022-07-15T05:37:41;98323.88;;;16.52;61.64
42601;BME280;28229;48.856;9.088;2022-07-15T05:40:11;98331.09;;;16.57;61.14
42601;BME280;28229;48.856;9.088;2022-07-15T05:42:43;98332.25;;;16.66;59.64
42601;BME280;28229;48.856;9.088;2022-07-15T05:45:09;98327.56;;;16.73;60.00
42601;BME280;28229;48.856;9.088;2022-07-15T05:47:49;98328.28;;;16.86;58.27
42601;BME280;28229;48.856;9.088;2022-07-15T05:50:17;98333.16;;;16.94;58.03
42601;BME280;28229;48.856;9.088;2022-07-15T05:52:43;98330.38;;;17.06;58.77
42601;BME280;28229;48.856;9.088;2022-07-15T05:55:11;98340.31;;;17.16;57.45
42601;BME280;28229;48.856;9.088;2022-07-15T05:57:37;98336.63;;;17.22;56.56
42601;BME280;28229;48.856;9.088;2022-07-15T06:00:04;98341.03;;;17.33;60.37
42601;BME280;28229;48.856;9.088;2022-07-15T06:02:39;98343.22;;;17.41;60.00
42601;BME280;28229;48.856;9.088;2022-07-15T06:05:11;98341.66;;;17.45;56.48
42601;BME280;28229;48.856;9.088;2022-07-15T06:07:42;98342.03;;;17.54;56.29
42601;BME280;28229;48.856;9.088;2022-07-15T06:10:10;98346.13;;;17.67;56.34
42601;BME280;28229;48.856;9.088;2022-07-15T06:12:37;98344.88;;;17.80;55.66
42601;BME280;28229;48.856;9.088;2022-07-15T06:15:03;98347.38;;;17.86;54.17
42601;BME280;28229;48.856;9.088;2022-07-15T06:17:30;98349.09;;;18.03;53.87
42601;BME280;28229;48.856;9.088;2022-07-15T06:19:58;98351.88;;;18.18;54.39
42601;BME280;28229;48.856;9.088;2022-07-15T06:22:24;98347.69;;;18.33;52.77
42601;BME280;28229;48.856;9.088;2022-07-15T06:24:50;98344.03;;;18.44;51.63
42601;BME280;28229;48.856;9.088;2022-07-15T06:27:19;98349.41;;;18.54;51.74
42601;BME280;28229;48.856;9.088;2022-07-15T06:29:51;98342.53;;;18.69;51.27
42601;BME280;28229;48.856;9.088;2022-07-15T06:32:19;98340.97;;;18.78;50.34
42601;BME280;28229;48.856;9.088;2022-07-15T06:34:45;98341.59;;;18.90;50.38
42601;BME280;28229;48.856;9.088;2022-07-15T06:37:11;98338.16;;;19.00;50.21
42601;BME280;28229;48.856;9.088;2022-07-15T06:39:37;98340.06;;;19.10;50.09
42601;BME280;28229;48.856;9.088;2022-07-15T06:42:04;98337.97;;;19.22;49.87
42601;BME280;28229;48.856;9.088;2022-07-15T06:44:30;98339.56;;;19.33;49.88
42601;BME280;28229;48.856;9.088;2022-07-15T06:46:56;98345.19;;;19.47;49.31
42601;BME280;28229;48.856;9.088;2022-07-15T06:49:22;98341.72;;;19.62;47.97
42601;BME280;28229;48.856;9.088;2022-07-15T06:51:52;98333.78;;;19.77;47.86
42601;BME280;28229;48.856;9.088;2022-07-15T06:54:19;98338.59;;;19.86;46.83
42601;BME280;28229;48.856;9.088;2022-07-15T06:56:47;98336.72;;;19.96;46.53
42601;BME280;28229;48.856;9.088;2022-07-15T06:59:13;98330.25;;;20.18;46.08
42601;BME280;28229;48.856;9.088;2022-07-15T07:01:39;98337.44;;;20.33;44.66
42601;BME280;28229;48.856;9.088;2022-07-15T07:04:05;98335.28;;;20.40;44.95
42601;BME280;28229;48.856;9.088;2022-07-15T07:06:31;98340.06;;;20.53;45.19
42601;BME280;28229;48.856;9.088;2022-07-15T07:08:57;98338.44;;;20.68;44.73
42601;BME280;28229;48.856;9.088;2022-07-15T07:11:23;98340.50;;;20.81;43.38
42601;BME280;28229;48.856;9.088;2022-07-15T07:13:49;98337.50;;;20.98;42.93
42601;BME280;28229;48.856;9.088;2022-07-15T07:16:15;98343.09;;;21.07;42.58
42601;BME280;28229;48.856;9.088;2022-07-15T07:18:41;98338.72;;;21.21;42.51
42601;BME280;28229;48.856;9.088;2022-07-15T07:21:07;98334.09;;;21.32;42.00
42601;BME280;28229;48.856;9.088;2022-07-15T07:23:33;98326.81;;;21.43;40.90
42601;BME280;28229;48.856;9.088;2022-07-15T07:26:00;98328.31;;;21.59;39.72
42601;BME280;28229;48.856;9.088;2022-07-15T07:28:26;98327.66;;;21.73;40.03
42601;BME280;28229;48.856;9.088;2022-07-15T07:30:51;98324.13;;;21.82;38.91
42601;BME280;28229;48.856;9.088;2022-07-15T07:33:20;98330.09;;;22.03;38.50
42601;BME280;28229;48.856;9.088;2022-07-15T07:35:46;98341.78;;;22.13;37.38
42601;BME280;28229;48.856;9.088;2022-07-15T07:38:12;98329.88;;;22.29;36.94
42601;BME280;28229;48.856;9.088;2022-07-15T07:40:38;98329.19;;;22.42;36.81
42601;BME280;28229;48.856;9.088;2022-07-15T07:43:04;98328.00;;;22.54;34.65
42601;BME280;28229;48.856;9.088;2022-07-15T07:45:30;98336.03;;;22.54;34.63
42601;BME280;28229;48.856;9.088;2022-07-15T07:47:56;98330.56;;;22.64;34.98
42601;BME280;28229;48.856;9.088;2022-07-15T07:50:22;98328.78;;;22.78;33.85
42601;BME280;28229;48.856;9.088;2022-07-15T07:52:48;98320.50;;;22.94;33.81
42601;BME280;28229;48.856;9.088;2022-07-15T07:55:14;98330.28;;;23.09;33.41
42601;BME280;28229;48.856;9.088;2022-07-15T07:57:55;98323.81;;;23.29;32.86
42601;BME280;28229;48.856;9.088;2022-07-15T08:00:22;98324.47;;;23.40;33.55
42601;BME280;28229;48.856;9.088;2022-07-15T08:02:49;98327.94;;;23.59;33.07
42601;BME280;28229;48.856;9.088;2022-07-15T08:05:16;98319.09;;;23.59;32.42
42601;BME280;28229;48.856;9.088;2022-07-15T08:07:42;98320.38;;;23.61;32.78
42601;BME280;28229;48.856;9.088;2022-07-15T08:10:09;98317.97;;;23.60;31.58
42601;BME280;28229;48.856;9.088;2022-07-15T08:12:36;98320.44;;;23.75;32.13
42601;BME280;28229;48.856;9.088;2022-07-15T08:15:08;98318.91;;;23.88;31.18
42601;BME280;28229;48.856;9.088;2022-07-15T08:17:34;98323.50;;;24.15;31.28
42601;BME280;28229;48.856;9.088;2022-07-15T08:20:00;98321.44;;;24.40;30.36
42601;BME280;28229;48.856;9.088;2022-07-15T08:22:26;98324.28;;;24.62;30.67
42601;BME280;28229;48.856;9.088;2022-07-15T08:24:52;98321.28;;;24.78;30.58
42601;BME280;28229;48.856;9.088;2022-07-15T08:27:19;98322.88;;;24.79;29.83
42601;BME280;28229;48.856;9.088;2022-07-15T08:29:45;98327.34;;;24.83;29.59
42601;BME280;28229;48.856;9.088;2022-07-15T08:32:12;98322.47;;;24.85;29.34
42601;BME280;28229;48.856;9.088;2022-07-15T08:34:37;98320.25;;;25.01;30.10
42601;BME280;28229;48.856;9.088;2022-07-15T08:37:06;98314.03;;;25.01;29.82
42601;BME280;28229;48.856;9.088;2022-07-15T08:39:32;98317.72;;;25.19;30.16
42601;BME280;28229;48.856;9.088;2022-07-15T08:41:58;98315.88;;;25.42;29.89
42601;BME280;28229;48.856;9.088;2022-07-15T08:44:24;98320.56;;;25.59;29.53
42601;BME280;28229;48.856;9.088;2022-07-15T08:46:50;98316.88;;;25.77;29.28
42601;BME280;28229;48.856;9.088;2022-07-15T08:49:18;98326.41;;;25.97;28.59
42601;BME280;28229;48.856;9.088;2022-07-15T08:51:46;98322.28;;;26.00;28.58
42601;BME280;28229;48.856;9.088;2022-07-15T08:54:14;98321.06;;;26.15;28.30
42601;BME280;28229;48.856;9.088;2022-07-15T08:56:40;98324.09;;;26.13;28.75
42601;BME280;28229;48.856;9.088;2022-07-15T08:59:08;98331.69;;;26.11;28.18
42601;BME280;28229;48.856;9.088;2022-07-15T09:01:41;98335.59;;;26.28;28.02
42601;BME280;28229;48.856;9.088;2022-07-15T09:04:08;98331.22;;;26.49;27.73
42601;BME280;28229;48.856;9.088;2022-07-15T09:06:42;98336.63;;;26.49;27.43
42601;BME280;28229;48.856;9.088;2022-07-15T09:12:07;98335.00;;;26.48;27.98
42601;BME280;28229;48.856;9.088;2022-07-15T09:14:36;98333.09;;;26.49;27.88
42601;BME280;28229;48.856;9.088;2022-07-15T09:19:57;98330.31;;;26.63;28.19
42601;BME280;28229;48.856;9.088;2022-07-15T09:22:26;98323.88;;;26.81;27.46
42601;BME280;28229;48.856;9.088;2022-07-15T09:27:32;98332.50;;;26.60;27.19
42601;BME280;28229;48.856;9.088;2022-07-15T09:30:33;98332.41;;;26.66;27.13
42601;BME280;28229;48.856;9.088;2022-07-15T09:33:23;98337.38;;;26.81;27.79
42601;BME280;28229;48.856;9.088;2022-07-15T09:36:14;98329.28;;;26.81;27.89
42601;BME280;28229;48.856;9.088;2022-07-15T09:38:50;98332.16;;;27.02;27.68
42601;BME280;28229;48.856;9.088;2022-07-15T09:41:29;98341.84;;;27.12;27.60
42601;BME280;28229;48.856;9.088;2022-07-15T09:46:29;98339.84;;;27.61;27.35
42601;BME280;28229;48.856;9.088;2022-07-15T09:48:56;98340.59;;;27.70;26.12
42601;BME280;28229;48.856;9.088;2022-07-15T09:51:22;98336.59;;;27.77;25.29
42601;BME280;28229;48.856;9.088;2022-07-15T09:53:48;98333.28;;;27.80;25.56
42601;BME280;28229;48.856;9.088;2022-07-15T09:56:17;98341.56;;;27.92;25.74
42601;BME280;28229;48.856;9.088;2022-07-15T09:58:49;98343.47;;;27.57;25.92
42601;BME280;28229;48.856;9.088;2022-07-15T10:01:15;98343.31;;;27.70;26.77
42601;BME280;28229;48.856;9.088;2022-07-15T10:03:41;98339.16;;;27.90;26.02
42601;BME280;28229;48.856;9.088;2022-07-15T10:06:09;98336.13;;;27.92;26.49
42601;BME280;28229;48.856;9.088;2022-07-15T10:08:37;98341.56;;;27.92;25.71
42601;BME280;28229;48.856;9.088;2022-07-15T10:11:08;98333.69;;;28.17;25.63
42601;BME280;28229;48.856;9.088;2022-07-15T10:13:50;98338.19;;;28.42;24.93
42601;BME280;28229;48.856;9.088;2022-07-15T10:21:58;98341.38;;;28.44;24.88
42601;BME280;28229;48.856;9.088;2022-07-15T10:29:45;98322.94;;;27.90;25.24
42601;BME280;28229;48.856;9.088;2022-07-15T10:32:12;98321.16;;;27.86;25.59
42601;BME280;28229;48.856;9.088;2022-07-15T10:34:38;98321.97;;;27.86;25.86
42601;BME280;28229;48.856;9.088;2022-07-15T10:37:09;98320.25;;;27.90;27.11
42601;BME280;28229;48.856;9.088;2022-07-15T10:40:04;98311.88;;;28.22;26.18
42601;BME280;28229;48.856;9.088;2022-07-15T10:42:57;98309.91;;;28.31;25.84
42601;BME280;28229;48.856;9.088;2022-07-15T10:45:24;98313.97;;;28.55;26.11
42601;BME280;28229;48.856;9.088;2022-07-15T10:48:26;98303.59;;;28.57;25.91
42601;BME280;28229;48.856;9.088;2022-07-15T10:50:52;98307.78;;;28.45;26.20
42601;BME280;28229;48.856;9.088;2022-07-15T10:53:21;98304.25;;;28.54;26.21
42601;BME280;28229;48.856;9.088;2022-07-15T10:55:48;98303.59;;;28.57;25.81
42601;BME280;28229;48.856;9.088;2022-07-15T10:58:15;98297.25;;;28.82;25.22
42601;BME280;28229;48.856;9.088;2022-07-15T11:00:42;98301.88;;;29.03;25.40
42601;BME280;28229;48.856;9.088;2022-07-15T11:03:12;98288.03;;;29.26;24.90
42601;BME280;28229;48.856;9.088;2022-07-15T11:13:42;98280.66;;;28.63;25.24
42601;BME280;28229;48.856;9.088;2022-07-15T11:16:11;98280.06;;;28.19;26.18
42601;BME280;28229;48.856;9.088;2022-07-15T11:18:48;98273.66;;;28.53;25.70
42601;BME280;28229;48.856;9.088;2022-07-15T11:21:16;98268.13;;;28.49;26.14
42601;BME280;28229;48.856;9.088;2022-07-15T11:23:50;98267.97;;;28.16;26.04
42601;BME280;28229;48.856;9.088;2022-07-15T11:26:18;98262.13;;;28.05;26.47
42601;BME280;28229;48.856;9.088;2022-07-15T11:28:50;98272.59;;;28.45;26.13
42601;BME280;28229;48.856;9.088;2022-07-15T11:31:16;98277.28;;;28.66;25.80
42601;BME280;28229;48.856;9.088;2022-07-15T11:33:42;98274.66;;;28.99;25.00
42601;BME280;28229;48.856;9.088;2022-07-15T11:36:16;98263.84;;;29.20;24.68
42601;BME280;28229;48.856;9.088;2022-07-15T11:38:42;98267.81;;;29.56;24.55
42601;BME280;28229;48.856;9.088;2022-07-15T11:41:08;98261.50;;;29.65;24.49
42601;BME280;28229;48.856;9.088;2022-07-15T11:44:18;98263.44;;;29.31;24.99
42601;BME280;28229;48.856;9.088;2022-07-15T11:46:57;98258.06;;;29.55;24.82
42601;BME280;28229;48.856;9.088;2022-07-15T11:49:34;98266.25;;;29.68;25.24
42601;BME280;28229;48.856;9.088;2022-07-15T11:52:03;98263.94;;;29.91;25.54
42601;BME280;28229;48.856;9.088;2022-07-15T11:54:31;98265.69;;;30.20;25.06
42601;BME280;28229;48.856;9.088;2022-07-15T11:57:00;98269.06;;;30.54;23.90
42601;BME280;28229;48.856;9.088;2022-07-15T11:59:28;98265.69;;;30.45;23.13
42601;BME280;28229;48.856;9.088;2022-07-15T12:02:03;98259.09;;;30.58;23.41
42601;BME280;28229;48.856;9.088;2022-07-15T12:04:30;98269.06;;;30.29;23.61
42601;BME280;28229;48.856;9.088;2022-07-15T12:06:57;98261.25;;;30.03;23.83
42601;BME280;28229;48.856;9.088;2022-07-15T12:09:24;98264.13;;;29.73;23.94
42601;BME280;28229;48.856;9.088;2022-07-15T12:11:50;98259.78;;;30.06;23.82
42601;BME280;28229;48.856;9.088;2022-07-15T12:14:21;98261.16;;;30.36;24.00
42601;BME280;28229;48.856;9.088;2022-07-15T12:16:50;98255.25;;;30.71;22.93
42601;BME280;28229;48.856;9.088;2022-07-15T12:19:26;98256.59;;;30.65;23.72
42601;BME280;28229;48.856;9.088;2022-07-15T12:21:54;98259.56;;;30.48;24.13
42601;BME280;28229;48.856;9.088;2022-07-15T12:24:25;98257.97;;;30.22;24.58
42601;BME280;28229;48.856;9.088;2022-07-15T12:29:20;98253.66;;;30.33;24.55
42601;BME280;28229;48.856;9.088;2022-07-15T12:31:52;98255.28;;;30.22;23.97
42601;BME280;28229;48.856;9.088;2022-07-15T12:34:19;98261.25;;;30.03;24.65
42601;BME280;28229;48.856;9.088;2022-07-15T12:36:54;98257.25;;;29.76;24.22
42601;BME280;28229;48.856;9.088;2022-07-15T12:39:21;98247.78;;;30.07;23.59
42601;BME280;28229;48.856;9.088;2022-07-15T12:42:16;98248.91;;;29.81;24.77
42601;BME280;28229;48.856;9.088;2022-07-15T12:44:42;98249.28;;;29.25;25.25
42601;BME280;28229;48.856;9.088;2022-07-15T12:47:08;98252.13;;;29.62;24.88
42601;BME280;28229;48.856;9.088;2022-07-15T12:49:50;98252.53;;;29.97;23.48
42601;BME280;28229;48.856;9.088;2022-07-15T12:55:18;98249.38;;;30.32;23.51
42601;BME280;28229;48.856;9.088;2022-07-15T12:57:47;98253.44;;;30.02;24.28
42601;BME280;28229;48.856;9.088;2022-07-15T13:00:23;98243.22;;;29.74;23.53
42601;BME280;28229;48.856;9.088;2022-07-15T13:05:28;98256.94;;;30.27;23.92
42601;BME280;28229;48.856;9.088;2022-07-15T13:07:54;98257.75;;;30.27;23.46
42601;BME280;28229;48.856;9.088;2022-07-15T13:10:20;98258.66;;;30.07;23.90
42601;BME280;28229;48.856;9.088;2022-07-15T13:12:46;98252.47;;;30.43;22.88
42601;BME280;28229;48.856;9.088;2022-07-15T13:15:11;98257.75;;;30.64;22.64
42601;BME280;28229;48.856;9.088;2022-07-15T13:17:37;98241.19;;;30.82;22.70
42601;BME280;28229;48.856;9.088;2022-07-15T13:20:04;98244.59;;;30.79;22.72
42601;BME280;28229;48.856;9.088;2022-07-15T13:22:32;98244.63;;;30.29;22.99
42601;BME280;28229;48.856;9.088;2022-07-15T13:24:58;98229.81;;;29.44;24.37
42601;BME280;28229;48.856;9.088;2022-07-15T13:27:24;98230.59;;;29.11;24.94
42601;BME280;28229;48.856;9.088;2022-07-15T13:29:50;98245.81;;;28.53;25.65
42601;BME280;28229;48.856;9.088;2022-07-15T13:32:16;98246.81;;;28.18;25.72
42601;BME280;28229;48.856;9.088;2022-07-15T13:34:42;98235.25;;;28.00;26.02
42601;BME280;28229;48.856;9.088;2022-07-15T13:37:07;98233.88;;;28.54;25.57
42601;BME280;28229;48.856;9.088;2022-07-15T13:39:34;98234.63;;;29.05;25.09
42601;BME280;28229;48.856;9.088;2022-07-15T13:41:59;98227.34;;;29.18;25.06
42601;BME280;28229;48.856;9.088;2022-07-15T13:44:25;98226.94;;;29.07;24.98
42601;BME280;28229;48.856;9.088;2022-07-15T13:46:51;98231.97;;;29.38;24.76